Lebanon, Wisconsin
Current Conditions -  °F | °C
As of 10:55 AM on Friday 24 Oct 2014 (Local Time) from KRYV Reporting Station
Haze Haze  
Wind Chill: 50°   Ceiling: 300
Heat Index: 50°   Visibility: 5mi
Dew Point: 50°   Wind: 5mph
Humidity: 100%   Direction: 220°SW
Pressure: 30.04"   Gusts: NA
Location:  43.26°N, 88.63°W
Report Text: KRYV 241555Z AUTO 22004KT 5SM BR OVC003 10/10 A3004 RMK AO2 T01000100
Loading
Personal Weather Stations






























Interactive Weather Map
Tropical Storm Tracking
New forecast layout! Learn more

10-Day Weather Forecast

Advertisements
Track Severe Weather on mobile